createdAt,value
2017-04-26T00:00:55.021Z,5.83
2017-04-26T00:01:56.895Z,5.81
2017-04-26T00:02:57.915Z,5.72
2017-04-26T00:03:59.237Z,5.77
2017-04-26T00:05:00.619Z,5.83
2017-04-26T00:06:01.649Z,5.84
2017-04-26T00:07:02.725Z,5.91
2017-04-26T00:08:04.067Z,5.87
2017-04-26T00:09:06.345Z,5.86
2017-04-26T00:10:07.888Z,5.77
2017-04-26T00:11:08.920Z,5.81
2017-04-26T00:12:09.837Z,5.81
2017-04-26T00:13:10.983Z,5.75
2017-04-26T00:14:11.886Z,5.63
2017-04-26T00:15:13.174Z,5.66
2017-04-26T00:16:14.746Z,5.71
2017-04-26T00:17:15.761Z,5.75
2017-04-26T00:18:16.887Z,5.74
2017-04-26T00:19:18.092Z,5.80
2017-04-26T00:20:19.525Z,5.78
2017-04-26T00:21:20.761Z,5.81
2017-04-26T00:22:21.803Z,5.79
2017-04-26T00:23:23.280Z,5.81
2017-04-26T00:24:24.741Z,5.81
2017-04-26T00:25:25.859Z,5.79
2017-04-26T00:26:27.450Z,5.86
2017-04-26T00:27:28.661Z,5.76
2017-04-26T00:28:29.709Z,5.69
2017-04-26T00:29:31.317Z,5.63
2017-04-26T00:30:32.276Z,5.64
2017-04-26T00:31:33.505Z,5.58
2017-04-26T00:32:34.755Z,5.64
2017-04-26T00:33:35.996Z,5.55
2017-04-26T00:34:37.332Z,5.54
2017-04-26T00:35:38.507Z,5.48
2017-04-26T00:36:40.122Z,5.47
2017-04-26T00:37:41.718Z,5.46
2017-04-26T00:38:42.781Z,5.33
2017-04-26T00:39:43.934Z,5.28
2017-04-26T00:40:44.855Z,5.41
2017-04-26T00:41:45.785Z,5.58
2017-04-26T00:42:46.871Z,5.64
2017-04-26T00:43:47.986Z,5.59
2017-04-26T00:44:48.973Z,5.62
2017-04-26T00:45:49.952Z,5.61
2017-04-26T00:46:51.090Z,5.60
2017-04-26T00:47:52.196Z,5.57
2017-04-26T00:48:53.199Z,5.57
2017-04-26T00:49:54.310Z,5.56
2017-04-26T00:50:55.436Z,5.61
2017-04-26T00:51:56.322Z,5.50
2017-04-26T00:52:57.448Z,5.47
2017-04-26T00:53:58.369Z,5.53
2017-04-26T00:54:59.664Z,5.47
2017-04-26T00:56:00.820Z,5.38
2017-04-26T00:57:02.092Z,5.30
2017-04-26T00:58:03.122Z,5.29
2017-04-26T00:59:04.385Z,5.37
2017-04-26T01:00:05.513Z,5.18
2017-04-26T01:01:06.750Z,5.21
2017-04-26T01:02:07.795Z,5.22
2017-04-26T01:03:08.882Z,5.24
2017-04-26T01:04:09.902Z,5.12
2017-04-26T01:05:11.130Z,5.09
2017-04-26T01:06:12.314Z,5.11
2017-04-26T01:07:13.458Z,5.02
2017-04-26T01:08:14.598Z,4.98
2017-04-26T01:09:15.694Z,4.98
2017-04-26T01:10:17.037Z,5.01
2017-04-26T01:11:18.221Z,4.98
2017-04-26T01:12:19.206Z,5.00
2017-04-26T01:13:20.459Z,4.95
2017-04-26T01:14:21.787Z,4.96
2017-04-26T01:15:22.825Z,4.95
2017-04-26T01:16:24.290Z,4.97
2017-04-26T01:17:25.589Z,5.04
2017-04-26T01:18:26.750Z,5.16
2017-04-26T01:19:27.856Z,5.12
2017-04-26T01:20:29.300Z,5.15
2017-04-26T01:21:30.379Z,5.20
2017-04-26T01:22:31.894Z,5.19
2017-04-26T01:23:33.302Z,5.24
2017-04-26T01:24:34.493Z,5.23
2017-04-26T01:25:35.585Z,5.23
2017-04-26T01:26:36.819Z,5.20
2017-04-26T01:27:37.809Z,5.21
2017-04-26T01:28:39.477Z,5.23
2017-04-26T01:29:40.543Z,5.26
2017-04-26T01:30:42.008Z,5.20
2017-04-26T01:31:43.426Z,5.08
2017-04-26T01:32:44.775Z,5.02
2017-04-26T01:33:45.795Z,4.98
2017-04-26T01:34:47.136Z,4.98
2017-04-26T01:35:48.678Z,4.95
2017-04-26T01:36:50.028Z,4.99
2017-04-26T01:37:51.155Z,4.96
2017-04-26T01:38:52.277Z,4.96
2017-04-26T01:39:53.934Z,4.94
2017-04-26T01:40:55.086Z,4.99
2017-04-26T01:41:56.436Z,5.07
2017-04-26T01:42:57.847Z,5.15
2017-04-26T01:43:59.086Z,5.25
2017-04-26T01:45:00.546Z,5.28
2017-04-26T01:46:01.775Z,5.17
2017-04-26T01:47:03.241Z,5.20
2017-04-26T01:48:04.545Z,5.15
2017-04-26T01:49:05.918Z,5.11
2017-04-26T01:50:07.159Z,5.02
2017-04-26T01:51:08.795Z,5.03
2017-04-26T01:52:10.120Z,5.03
2017-04-26T01:53:11.521Z,5.04
2017-04-26T01:54:13.016Z,5.07
2017-04-26T01:55:14.012Z,5.11
2017-04-26T01:56:15.059Z,5.14
2017-04-26T01:57:16.485Z,5.16
2017-04-26T01:58:17.728Z,5.10
2017-04-26T01:59:18.874Z,5.11
2017-04-26T02:00:20.321Z,5.18
2017-04-26T02:01:21.965Z,5.18
2017-04-26T02:02:23.591Z,5.11
2017-04-26T02:03:25.257Z,5.08
2017-04-26T02:04:26.480Z,5.09
2017-04-26T02:05:28.097Z,5.04
2017-04-26T02:06:29.155Z,4.94
2017-04-26T02:07:30.226Z,4.94
2017-04-26T02:08:31.417Z,5.03
2017-04-26T02:09:32.527Z,4.99
2017-04-26T02:10:34.420Z,4.97
2017-04-26T02:11:35.444Z,4.94
2017-04-26T02:12:36.682Z,4.98
2017-04-26T02:13:37.817Z,5.02
2017-04-26T02:14:38.949Z,4.99
2017-04-26T02:15:40.404Z,4.98
2017-04-26T02:16:41.714Z,5.01
2017-04-26T02:17:42.737Z,5.11
2017-04-26T02:18:44.692Z,5.18
2017-04-26T02:19:45.937Z,5.20
2017-04-26T02:20:47.518Z,5.21
2017-04-26T02:21:48.733Z,5.22
2017-04-26T02:22:50.063Z,5.24
2017-04-26T02:23:51.183Z,5.22
2017-04-26T02:24:52.319Z,5.21
2017-04-26T02:25:53.576Z,5.29
2017-04-26T02:26:54.672Z,5.34
2017-04-26T02:27:55.746Z,5.34
2017-04-26T02:28:56.877Z,5.33
2017-04-26T02:29:57.993Z,5.33
2017-04-26T02:30:59.022Z,5.35
2017-04-26T02:32:00.151Z,5.32
2017-04-26T02:33:01.344Z,5.34
2017-04-26T02:34:02.381Z,5.35
2017-04-26T02:35:03.687Z,5.44
2017-04-26T02:36:05.146Z,5.50
2017-04-26T02:37:06.848Z,5.55
2017-04-26T02:38:08.141Z,5.49
2017-04-26T02:39:09.367Z,5.46
2017-04-26T02:40:10.598Z,5.47
2017-04-26T02:41:12.273Z,5.46
2017-04-26T02:42:13.497Z,5.34
2017-04-26T02:43:14.773Z,5.33
2017-04-26T02:44:16.130Z,5.30
2017-04-26T02:45:17.385Z,5.33
2017-04-26T02:46:18.516Z,5.33
2017-04-26T02:47:19.545Z,5.33
2017-04-26T02:48:20.846Z,5.34
2017-04-26T02:49:22.131Z,5.35
2017-04-26T02:50:23.273Z,5.33
2017-04-26T02:51:24.539Z,5.38
2017-04-26T02:52:25.878Z,5.39
2017-04-26T02:53:27.105Z,5.45
2017-04-26T02:54:28.466Z,5.47
2017-04-26T02:55:29.780Z,5.52
2017-04-26T02:56:30.817Z,5.52
2017-04-26T02:57:32.090Z,5.45
2017-04-26T02:58:33.411Z,5.41
2017-04-26T02:59:34.733Z,5.41
2017-04-26T03:00:36.084Z,5.38
2017-04-26T03:01:37.355Z,5.43
2017-04-26T03:02:38.470Z,5.49
2017-04-26T03:03:39.701Z,5.54
2017-04-26T03:04:41.340Z,5.49
2017-04-26T03:05:42.565Z,5.41
2017-04-26T03:06:43.890Z,5.37
2017-04-26T03:07:44.906Z,5.28
2017-04-26T03:08:46.171Z,5.24
2017-04-26T03:09:47.886Z,5.16
2017-04-26T03:10:49.037Z,5.15
2017-04-26T03:11:50.337Z,5.16
2017-04-26T03:12:51.390Z,5.13
2017-04-26T03:13:53.372Z,5.06
2017-04-26T03:14:54.591Z,5.00
2017-04-26T03:15:55.646Z,5.05
2017-04-26T03:16:56.798Z,5.10
2017-04-26T03:17:57.889Z,5.13
2017-04-26T03:18:59.081Z,5.15
2017-04-26T03:20:00.338Z,5.01
2017-04-26T03:21:01.923Z,4.96
2017-04-26T03:22:03.512Z,4.94
2017-04-26T03:23:04.608Z,4.91
2017-04-26T03:24:06.197Z,4.90
2017-04-26T03:25:07.587Z,4.89
2017-04-26T03:26:08.806Z,4.87
2017-04-26T03:27:10.041Z,4.87
2017-04-26T03:28:11.278Z,4.89
2017-04-26T03:29:12.293Z,4.95
2017-04-26T03:30:13.310Z,4.97
2017-04-26T03:31:14.432Z,4.98
2017-04-26T03:32:15.915Z,4.93
2017-04-26T03:33:17.110Z,4.90
2017-04-26T03:34:18.285Z,4.87
2017-04-26T03:35:19.435Z,4.82
2017-04-26T03:36:20.881Z,4.85
2017-04-26T03:37:22.101Z,4.97
2017-04-26T03:38:23.343Z,4.97
2017-04-26T03:39:24.577Z,4.97
2017-04-26T03:40:26.021Z,5.05
2017-04-26T03:41:27.361Z,5.14
2017-04-26T03:42:28.392Z,5.15
2017-04-26T03:43:29.640Z,5.25
2017-04-26T03:44:30.863Z,5.27
2017-04-26T03:45:32.100Z,5.23
2017-04-26T03:46:33.338Z,5.17
2017-04-26T03:47:34.874Z,5.18
2017-04-26T03:48:36.101Z,5.14
2017-04-26T03:49:37.302Z,5.12
2017-04-26T03:50:38.364Z,5.10
2017-04-26T03:51:39.444Z,5.09
2017-04-26T03:52:40.942Z,5.03
2017-04-26T03:53:42.105Z,5.08
2017-04-26T03:54:43.523Z,5.08
2017-04-26T03:55:45.017Z,5.10
2017-04-26T03:56:46.385Z,5.12
2017-04-26T03:57:47.791Z,5.19
2017-04-26T03:58:48.970Z,5.22
2017-04-26T03:59:50.281Z,5.15
2017-04-26T04:00:51.690Z,5.15
2017-04-26T04:01:52.723Z,5.15
2017-04-26T04:02:54.075Z,5.11
2017-04-26T04:03:55.201Z,5.05
2017-04-26T04:04:56.582Z,4.97
2017-04-26T04:05:57.774Z,4.95
2017-04-26T04:06:58.936Z,4.94
2017-04-26T04:08:00.156Z,4.92
2017-04-26T04:09:01.679Z,4.93
2017-04-26T04:10:02.925Z,4.95
2017-04-26T04:11:04.290Z,4.92
2017-04-26T04:12:05.674Z,4.88
2017-04-26T04:13:06.911Z,4.92
2017-04-26T04:14:09.605Z,4.88
2017-04-26T04:15:11.057Z,4.86
2017-04-26T04:16:12.599Z,4.88
2017-04-26T04:17:14.039Z,4.86
2017-04-26T04:18:15.786Z,4.84
2017-04-26T04:19:17.038Z,4.85
2017-04-26T04:20:18.125Z,4.93
2017-04-26T04:21:19.406Z,5.00
2017-04-26T04:22:20.727Z,5.07
2017-04-26T04:23:22.255Z,5.00
2017-04-26T04:24:23.485Z,4.93
2017-04-26T04:25:25.032Z,4.97
2017-04-26T04:26:26.380Z,4.96
2017-04-26T04:27:27.416Z,4.91
2017-04-26T04:28:28.852Z,4.96
2017-04-26T04:29:30.104Z,5.07
2017-04-26T04:30:31.439Z,5.02
2017-04-26T04:31:32.856Z,5.01
2017-04-26T04:32:34.114Z,5.00
2017-04-26T04:33:35.423Z,5.08
2017-04-26T04:34:36.546Z,5.08
2017-04-26T04:35:37.809Z,5.11
2017-04-26T04:36:39.055Z,5.05
2017-04-26T04:37:40.378Z,5.05
2017-04-26T04:38:41.573Z,5.06
2017-04-26T04:39:42.968Z,5.12
2017-04-26T04:40:44.170Z,5.07
2017-04-26T04:41:45.682Z,5.06
2017-04-26T04:42:46.857Z,5.09
2017-04-26T04:43:48.161Z,5.17
2017-04-26T04:44:49.438Z,5.18
2017-04-26T04:45:50.674Z,5.19
2017-04-26T04:46:51.825Z,5.20
2017-04-26T04:47:53.116Z,5.21
2017-04-26T04:48:54.369Z,5.20
2017-04-26T04:49:55.720Z,5.12
2017-04-26T04:50:56.952Z,5.19
2017-04-26T04:51:58.335Z,5.23
2017-04-26T04:52:59.590Z,5.12
2017-04-26T04:54:01.007Z,5.09
2017-04-26T04:55:02.348Z,5.13
2017-04-26T04:56:03.761Z,5.10
2017-04-26T04:57:10.612Z,5.10
2017-04-26T04:58:12.178Z,5.06
2017-04-26T04:59:13.619Z,5.08
2017-04-26T05:00:15.239Z,5.17
2017-04-26T05:01:17.400Z,5.25
2017-04-26T05:02:19.393Z,5.27
2017-04-26T05:03:20.664Z,5.26
2017-04-26T05:04:21.946Z,5.25
2017-04-26T05:05:23.113Z,5.26
2017-04-26T05:06:24.210Z,5.26
2017-04-26T05:07:25.421Z,5.25
2017-04-26T05:08:26.603Z,5.29
2017-04-26T05:09:28.034Z,5.31
2017-04-26T05:10:30.211Z,5.30
2017-04-26T05:11:31.602Z,5.33
2017-04-26T05:12:33.196Z,5.34
2017-04-26T05:13:34.423Z,5.41
2017-04-26T05:14:35.749Z,5.42
2017-04-26T05:15:36.988Z,5.37
2017-04-26T05:16:38.525Z,5.31
2017-04-26T05:17:39.869Z,5.34
2017-04-26T05:18:41.256Z,5.38
2017-04-26T05:19:42.443Z,5.45
2017-04-26T05:20:43.912Z,5.40
2017-04-26T05:21:45.171Z,5.42
2017-04-26T05:22:46.648Z,5.45
2017-04-26T05:23:48.012Z,5.52
2017-04-26T05:24:49.573Z,5.52
2017-04-26T05:25:50.859Z,5.51
2017-04-26T05:26:52.180Z,5.45
2017-04-26T05:27:53.653Z,5.40
2017-04-26T05:28:54.994Z,5.43
2017-04-26T05:29:56.464Z,5.45
2017-04-26T05:30:57.681Z,5.48
2017-04-26T05:31:59.389Z,5.50
2017-04-26T05:33:00.838Z,5.47
2017-04-26T05:34:02.844Z,5.50
2017-04-26T05:35:04.724Z,5.54
2017-04-26T05:36:06.216Z,5.59
2017-04-26T05:37:07.565Z,5.62
2017-04-26T05:38:08.792Z,5.70
2017-04-26T05:39:10.347Z,5.74
2017-04-26T05:40:11.887Z,5.72
2017-04-26T05:41:13.225Z,5.72
2017-04-26T05:42:14.458Z,5.80
2017-04-26T05:43:15.840Z,5.89
2017-04-26T05:44:17.236Z,5.97
2017-04-26T05:45:18.679Z,5.96
2017-04-26T05:46:20.677Z,5.94
2017-04-26T05:47:22.117Z,5.93
2017-04-26T05:48:23.327Z,5.91
2017-04-26T05:49:24.612Z,5.87
2017-04-26T05:50:25.869Z,5.90
2017-04-26T05:51:27.012Z,5.87
2017-04-26T05:52:28.210Z,5.87
2017-04-26T05:53:29.150Z,5.91
2017-04-26T05:54:30.344Z,5.91
2017-04-26T05:55:31.658Z,5.87
2017-04-26T05:56:32.788Z,5.85
2017-04-26T05:57:35.159Z,5.91
2017-04-26T05:58:36.381Z,5.93
2017-04-26T05:59:37.545Z,5.88
2017-04-26T06:00:39.181Z,5.88
2017-04-26T06:01:40.434Z,5.89
2017-04-26T06:02:46.726Z,5.94
2017-04-26T06:03:49.839Z,5.94
2017-04-26T06:04:51.342Z,5.96
2017-04-26T06:05:52.561Z,5.94
2017-04-26T06:06:53.734Z,5.95
2017-04-26T06:07:54.871Z,5.96
2017-04-26T06:08:56.035Z,5.96
2017-04-26T06:09:57.172Z,5.99
2017-04-26T06:11:01.673Z,6.00
2017-04-26T06:12:04.674Z,5.98
2017-04-26T06:13:07.527Z,6.03
2017-04-26T06:14:08.935Z,6.01
2017-04-26T06:15:10.074Z,5.99
2017-04-26T06:16:11.207Z,6.02
2017-04-26T06:17:12.453Z,6.04
2017-04-26T06:18:13.642Z,6.05
2017-04-26T06:19:14.755Z,6.08
2017-04-26T06:20:15.924Z,6.09
2017-04-26T06:21:17.113Z,6.11
2017-04-26T06:22:18.338Z,6.11
2017-04-26T06:23:19.563Z,6.10
2017-04-26T06:24:20.729Z,6.12
2017-04-26T06:25:21.836Z,6.14
2017-04-26T06:26:23.147Z,6.21
2017-04-26T06:27:24.102Z,6.19
2017-04-26T06:28:25.327Z,6.20
2017-04-26T06:29:26.345Z,6.21
2017-04-26T06:30:27.798Z,6.20
2017-04-26T06:31:29.035Z,6.20
2017-04-26T06:32:30.181Z,6.23
2017-04-26T06:33:31.625Z,6.25
2017-04-26T06:34:32.966Z,6.29
2017-04-26T06:35:34.303Z,6.31
2017-04-26T06:36:35.701Z,6.42
2017-04-26T06:37:36.985Z,6.50
2017-04-26T06:38:38.355Z,6.52
2017-04-26T06:39:39.695Z,6.52
2017-04-26T06:40:41.097Z,6.58
2017-04-26T06:41:42.418Z,6.60
2017-04-26T06:42:43.554Z,6.64
2017-04-26T06:43:44.853Z,6.69
2017-04-26T06:44:46.246Z,6.77
2017-04-26T06:45:47.383Z,6.83
2017-04-26T06:46:48.519Z,6.92
2017-04-26T06:47:49.862Z,6.94
2017-04-26T06:48:50.880Z,6.99
2017-04-26T06:49:52.017Z,6.98
2017-04-26T06:50:52.977Z,7.00
2017-04-26T06:51:54.187Z,6.98
2017-04-26T06:52:55.310Z,6.99
2017-04-26T06:53:56.585Z,7.04
2017-04-26T06:54:57.730Z,7.09
2017-04-26T06:55:58.959Z,7.18
2017-04-26T06:57:00.161Z,7.20
2017-04-26T06:58:01.397Z,7.29
2017-04-26T06:59:02.486Z,7.32
2017-04-26T07:00:03.679Z,7.35
2017-04-26T07:01:04.678Z,7.38
2017-04-26T07:02:05.776Z,7.44
2017-04-26T07:03:08.305Z,7.49
2017-04-26T07:04:09.356Z,7.50
2017-04-26T07:05:10.547Z,7.52
2017-04-26T07:06:11.585Z,7.54
2017-04-26T07:07:12.554Z,7.57
2017-04-26T07:08:13.754Z,7.59
2017-04-26T07:09:15.113Z,7.61
2017-04-26T07:10:16.479Z,7.68
2017-04-26T07:11:17.766Z,7.78
2017-04-26T07:12:18.758Z,7.79
2017-04-26T07:13:19.866Z,7.86
2017-04-26T07:14:21.178Z,7.90
2017-04-26T07:15:22.359Z,7.95
2017-04-26T07:16:23.759Z,7.99
2017-04-26T07:17:24.995Z,8.06
2017-04-26T07:18:26.250Z,8.15
2017-04-26T07:19:27.706Z,8.24
2017-04-26T07:20:28.922Z,8.33
2017-04-26T07:21:30.457Z,8.41
2017-04-26T07:22:31.704Z,8.52
2017-04-26T07:23:33.043Z,8.64
2017-04-26T07:24:34.386Z,8.84
2017-04-26T07:25:35.564Z,8.91
2017-04-26T07:26:36.742Z,8.95
2017-04-26T07:27:37.876Z,8.96
2017-04-26T07:28:39.095Z,8.89
2017-04-26T07:29:40.236Z,8.93
2017-04-26T07:30:41.409Z,8.98
2017-04-26T07:31:42.650Z,8.97
2017-04-26T07:32:43.770Z,9.01
2017-04-26T07:33:44.925Z,9.00
2017-04-26T07:34:46.092Z,8.96
2017-04-26T07:35:47.268Z,8.97
2017-04-26T07:36:48.493Z,8.99
2017-04-26T07:37:49.542Z,8.87
2017-04-26T07:38:50.661Z,8.82
2017-04-26T07:39:51.810Z,8.84
2017-04-26T07:40:52.919Z,8.85
2017-04-26T07:41:54.120Z,8.82
2017-04-26T07:42:55.320Z,8.80
2017-04-26T07:43:56.547Z,8.72
2017-04-26T07:44:57.717Z,8.70
2017-04-26T07:45:58.906Z,8.66
2017-04-26T07:47:00.149Z,8.61
2017-04-26T07:48:01.395Z,8.58
2017-04-26T07:49:02.566Z,8.56
2017-04-26T07:50:03.684Z,8.61
2017-04-26T07:51:05.309Z,8.61
2017-04-26T07:52:07.094Z,8.55
2017-04-26T07:53:08.296Z,8.52
2017-04-26T07:54:09.939Z,8.50
2017-04-26T07:55:11.249Z,8.51
2017-04-26T07:56:12.393Z,8.56
2017-04-26T07:57:13.674Z,8.63
2017-04-26T07:58:14.655Z,8.67
2017-04-26T07:59:15.894Z,8.71
2017-04-26T08:00:17.036Z,8.76
2017-04-26T08:01:18.020Z,8.78
2017-04-26T08:02:19.069Z,8.76
2017-04-26T08:03:20.208Z,8.72
2017-04-26T08:04:21.325Z,8.72
2017-04-26T08:05:22.422Z,8.73
2017-04-26T08:06:23.501Z,8.75
2017-04-26T08:07:24.586Z,8.80
2017-04-26T08:08:25.650Z,8.87
2017-04-26T08:09:26.666Z,8.88
2017-04-26T08:10:28.942Z,8.88
2017-04-26T08:11:30.154Z,8.87
2017-04-26T08:12:31.190Z,8.82
2017-04-26T08:13:32.049Z,8.84
2017-04-26T08:14:33.167Z,8.88
2017-04-26T08:15:34.179Z,8.99
2017-04-26T08:16:35.253Z,9.02
2017-04-26T08:17:36.100Z,9.09
2017-04-26T08:18:37.148Z,9.16
2017-04-26T08:19:38.215Z,9.15
2017-04-26T08:20:39.274Z,9.13
2017-04-26T08:21:40.590Z,9.15
2017-04-26T08:22:41.590Z,9.17
2017-04-26T08:23:42.657Z,9.25
2017-04-26T08:24:43.642Z,9.34
2017-04-26T08:25:44.698Z,9.37
2017-04-26T08:26:45.769Z,9.42
2017-04-26T08:27:46.797Z,9.49
2017-04-26T08:28:47.901Z,9.52
2017-04-26T08:29:49.039Z,9.62
2017-04-26T08:30:50.072Z,9.67
2017-04-26T08:31:50.922Z,9.73
2017-04-26T08:32:51.930Z,9.77
2017-04-26T08:33:52.819Z,9.71
2017-04-26T08:34:54.096Z,9.73
2017-04-26T08:35:55.135Z,9.77
2017-04-26T08:36:56.174Z,9.82
2017-04-26T08:37:57.186Z,9.92
2017-04-26T08:38:58.334Z,9.91
2017-04-26T08:39:59.142Z,9.89
2017-04-26T08:41:00.298Z,9.91
2017-04-26T08:42:01.335Z,9.88
2017-04-26T08:43:02.367Z,9.85
2017-04-26T08:44:03.554Z,9.85
2017-04-26T08:45:04.767Z,9.89
2017-04-26T08:46:05.825Z,9.84
2017-04-26T08:47:06.947Z,9.85
2017-04-26T08:48:08.192Z,9.89
2017-04-26T08:49:09.303Z,9.97
2017-04-26T08:50:10.287Z,10.12
2017-04-26T08:51:11.297Z,10.12
2017-04-26T08:52:12.342Z,10.15
2017-04-26T08:53:13.894Z,10.22
2017-04-26T08:54:15.357Z,10.29
2017-04-26T08:55:16.531Z,10.32
2017-04-26T08:56:17.509Z,10.07
2017-04-26T08:57:18.618Z,9.85
2017-04-26T08:58:19.710Z,9.89
2017-04-26T08:59:20.775Z,9.90
2017-04-26T09:00:21.891Z,9.76
2017-04-26T09:01:23.178Z,9.77
2017-04-26T09:02:24.190Z,9.85
2017-04-26T09:03:25.193Z,9.87
2017-04-26T09:04:26.190Z,9.94
2017-04-26T09:05:27.278Z,10.02
2017-04-26T09:06:28.130Z,10.03
2017-04-26T09:07:29.523Z,10.08
2017-04-26T09:08:30.394Z,10.15
2017-04-26T09:09:31.207Z,10.25
2017-04-26T09:10:32.018Z,10.24
2017-04-26T09:11:33.082Z,10.20
2017-04-26T09:12:33.926Z,10.18
2017-04-26T09:13:34.949Z,10.26
2017-04-26T09:14:36.003Z,10.29
2017-04-26T09:15:37.395Z,10.47
2017-04-26T09:16:38.497Z,10.49
2017-04-26T09:17:39.573Z,10.41
2017-04-26T09:18:40.710Z,10.42
2017-04-26T09:19:41.794Z,10.34
2017-04-26T09:20:43.913Z,10.25
2017-04-26T09:21:45.171Z,10.12
2017-04-26T09:22:46.206Z,10.00
2017-04-26T09:23:47.190Z,9.95
2017-04-26T09:24:48.193Z,9.90
2017-04-26T09:25:49.091Z,9.96
2017-04-26T09:26:49.978Z,10.04
2017-04-26T09:27:50.981Z,10.12
2017-04-26T09:28:52.115Z,10.19
2017-04-26T09:29:53.138Z,10.15
2017-04-26T09:30:54.151Z,10.15
2017-04-26T09:31:55.041Z,10.17
2017-04-26T09:32:55.886Z,10.29
2017-04-26T09:33:57.305Z,10.40
2017-04-26T09:34:58.109Z,10.43
2017-04-26T09:35:59.164Z,10.52
2017-04-26T09:37:00.414Z,10.62
2017-04-26T09:38:01.699Z,10.64
2017-04-26T09:39:02.730Z,10.53
2017-04-26T09:40:03.998Z,10.55
2017-04-26T09:41:05.053Z,10.57
2017-04-26T09:42:07.154Z,10.56
2017-04-26T09:43:08.090Z,10.58
2017-04-26T09:44:09.131Z,10.58
2017-04-26T09:45:10.159Z,10.63
2017-04-26T09:46:11.142Z,10.64
2017-04-26T09:47:12.166Z,10.54
2017-04-26T09:48:13.658Z,10.45
2017-04-26T09:49:14.713Z,10.35
2017-04-26T09:50:15.738Z,10.20
2017-04-26T09:51:16.767Z,10.02
2017-04-26T09:52:17.862Z,9.91
2017-04-26T09:53:18.891Z,9.86
2017-04-26T09:54:19.983Z,9.81
2017-04-26T09:55:20.870Z,9.71
2017-04-26T09:56:21.938Z,9.68
2017-04-26T09:57:22.990Z,9.66
2017-04-26T09:58:23.866Z,9.62
2017-04-26T09:59:24.886Z,9.56
2017-04-26T10:00:26.280Z,9.45
2017-04-26T10:01:27.314Z,9.47
2017-04-26T10:02:28.362Z,9.45
2017-04-26T10:03:29.425Z,9.43
2017-04-26T10:04:30.291Z,9.42
2017-04-26T10:05:31.386Z,9.44
2017-04-26T10:06:32.415Z,9.46
2017-04-26T10:07:33.423Z,9.45
2017-04-26T10:08:34.275Z,9.39
2017-04-26T10:09:35.722Z,9.37
2017-04-26T10:10:36.763Z,9.43
2017-04-26T10:11:37.683Z,9.52
2017-04-26T10:12:38.691Z,9.52
2017-04-26T10:13:39.746Z,9.51
2017-04-26T10:14:47.781Z,9.51
2017-04-26T10:15:41.838Z,9.55
2017-04-26T10:16:42.630Z,9.58
2017-04-26T10:17:43.780Z,9.57
2017-04-26T10:18:44.866Z,9.60
2017-04-26T10:19:45.720Z,9.63
2017-04-26T10:20:46.758Z,9.68
2017-04-26T10:21:47.754Z,9.69
2017-04-26T10:22:48.793Z,9.74
2017-04-26T10:23:49.845Z,9.74
2017-04-26T10:24:50.860Z,9.74
2017-04-26T10:25:52.031Z,9.75
2017-04-26T10:26:53.035Z,9.79
2017-04-26T10:27:59.262Z,9.83
2017-04-26T10:28:54.800Z,9.88
2017-04-26T10:29:55.582Z,9.97
2017-04-26T10:30:56.622Z,10.05
2017-04-26T10:31:57.675Z,10.25
2017-04-26T10:32:58.514Z,10.38
2017-04-26T10:33:59.714Z,10.49
2017-04-26T10:35:00.603Z,10.66
2017-04-26T10:36:01.725Z,10.74
2017-04-26T10:37:03.165Z,10.80
2017-04-26T10:38:04.278Z,10.90
2017-04-26T10:39:06.742Z,11.01
2017-04-26T10:40:08.247Z,11.01
2017-04-26T10:41:09.272Z,11.12
2017-04-26T10:42:10.644Z,11.11
2017-04-26T10:43:11.867Z,11.10
2017-04-26T10:44:12.986Z,11.08
2017-04-26T10:45:18.151Z,11.09
2017-04-26T10:46:19.194Z,11.11
2017-04-26T10:47:20.203Z,11.13
2017-04-26T10:48:21.603Z,11.09
2017-04-26T10:49:22.668Z,11.06
2017-04-26T10:50:23.675Z,11.01
2017-04-26T10:51:25.162Z,10.98
2017-04-26T10:52:26.208Z,11.00
2017-04-26T10:53:27.188Z,11.05
2017-04-26T10:54:28.273Z,10.99
2017-04-26T10:55:29.183Z,10.93
2017-04-26T10:56:30.214Z,10.95
2017-04-26T10:57:31.146Z,10.93
2017-04-26T10:58:32.234Z,10.91
2017-04-26T10:59:33.376Z,10.82
2017-04-26T11:00:34.729Z,10.85
2017-04-26T11:01:35.647Z,10.87
2017-04-26T11:02:36.709Z,10.82
2017-04-26T11:03:37.671Z,10.83
2017-04-26T11:04:41.759Z,10.89
2017-04-26T11:05:42.842Z,10.91
2017-04-26T11:06:44.046Z,10.84
2017-04-26T11:07:45.139Z,10.88
2017-04-26T11:08:46.142Z,10.83
2017-04-26T11:09:47.451Z,10.76
2017-04-26T11:10:48.542Z,10.69
2017-04-26T11:11:49.597Z,10.67
2017-04-26T11:12:51.043Z,10.69
2017-04-26T11:13:52.098Z,10.69
2017-04-26T11:14:53.196Z,10.67
2017-04-26T11:15:54.241Z,10.66
2017-04-26T11:16:55.245Z,10.62
2017-04-26T11:17:56.266Z,10.52
2017-04-26T11:18:57.770Z,10.49
2017-04-26T11:19:58.871Z,10.49
2017-04-26T11:20:59.907Z,10.49
2017-04-26T11:22:00.820Z,10.34
2017-04-26T11:23:01.634Z,10.23
2017-04-26T11:24:02.664Z,10.20
2017-04-26T11:25:03.686Z,10.16
2017-04-26T11:26:04.814Z,10.18
2017-04-26T11:27:06.061Z,10.21
2017-04-26T11:28:07.199Z,10.21
2017-04-26T11:29:08.363Z,10.27
2017-04-26T11:30:09.510Z,10.33
2017-04-26T11:31:11.028Z,10.34
2017-04-26T11:32:12.047Z,10.38
2017-04-26T11:33:12.901Z,10.40
2017-04-26T11:34:13.994Z,10.46
2017-04-26T11:35:15.590Z,10.48
2017-04-26T11:36:16.695Z,10.49
2017-04-26T11:37:17.689Z,10.48
2017-04-26T11:38:18.666Z,10.47
2017-04-26T11:39:19.690Z,10.54
2017-04-26T11:40:20.706Z,10.57
2017-04-26T11:41:21.706Z,10.61
2017-04-26T11:42:22.738Z,10.60
2017-04-26T11:43:23.781Z,10.65
2017-04-26T11:44:24.822Z,10.69
2017-04-26T11:45:25.934Z,10.80
2017-04-26T11:46:26.755Z,10.85
2017-04-26T11:47:27.792Z,10.83
2017-04-26T11:48:28.898Z,10.76
2017-04-26T11:49:29.919Z,10.82
2017-04-26T11:50:31.091Z,10.84
2017-04-26T11:51:32.135Z,10.86
2017-04-26T11:52:33.158Z,10.86
2017-04-26T11:53:34.038Z,10.81
2017-04-26T11:54:35.122Z,10.81
2017-04-26T11:55:36.210Z,10.78
2017-04-26T11:56:37.306Z,10.83
2017-04-26T11:57:38.365Z,10.83
2017-04-26T11:58:39.246Z,10.83
2017-04-26T11:59:40.296Z,10.90
2017-04-26T12:00:41.818Z,11.01
2017-04-26T12:01:42.619Z,10.97
2017-04-26T12:02:43.464Z,11.01
2017-04-26T12:03:44.314Z,11.09
2017-04-26T12:04:45.341Z,11.20
2017-04-26T12:05:46.512Z,11.33
2017-04-26T12:06:47.392Z,11.40
2017-04-26T12:07:48.394Z,11.44
2017-04-26T12:08:49.462Z,11.45
2017-04-26T12:09:50.606Z,11.44
2017-04-26T12:10:51.693Z,11.45
2017-04-26T12:11:52.731Z,11.40
2017-04-26T12:12:53.856Z,11.30
2017-04-26T12:13:54.898Z,11.19
2017-04-26T12:14:55.949Z,11.16
2017-04-26T12:15:56.984Z,11.12
2017-04-26T12:16:58.383Z,11.07
2017-04-26T12:17:59.552Z,11.01
2017-04-26T12:19:00.710Z,11.00
2017-04-26T12:20:01.956Z,10.96
2017-04-26T12:21:02.940Z,11.01
2017-04-26T12:22:03.974Z,10.97
2017-04-26T12:23:05.070Z,10.97
2017-04-26T12:24:06.338Z,10.98
2017-04-26T12:25:07.650Z,10.99
2017-04-26T12:26:08.557Z,10.96
2017-04-26T12:27:09.654Z,10.97
2017-04-26T12:28:11.162Z,10.94
2017-04-26T12:29:12.087Z,10.94
2017-04-26T12:30:13.126Z,10.94
2017-04-26T12:31:14.133Z,10.94
2017-04-26T12:32:14.955Z,10.97
2017-04-26T12:33:15.919Z,10.98
2017-04-26T12:34:17.017Z,11.00
2017-04-26T12:35:18.119Z,11.10
2017-04-26T12:36:20.086Z,11.21
2017-04-26T12:37:21.258Z,11.31
2017-04-26T12:38:22.290Z,11.41
2017-04-26T12:39:23.307Z,11.55
2017-04-26T12:40:24.337Z,11.62
2017-04-26T12:41:25.424Z,11.65
2017-04-26T12:42:26.627Z,11.65
2017-04-26T12:43:27.649Z,11.66
2017-04-26T12:44:28.702Z,11.71
2017-04-26T12:45:29.762Z,11.74
2017-04-26T12:46:30.658Z,11.76
2017-04-26T12:47:31.543Z,11.83
2017-04-26T12:48:32.579Z,11.91
2017-04-26T12:49:33.447Z,12.03
2017-04-26T12:50:34.442Z,12.13
2017-04-26T12:51:35.843Z,12.11
2017-04-26T12:52:36.991Z,12.13
2017-04-26T12:53:37.954Z,12.12
2017-04-26T12:54:39.003Z,12.09
2017-04-26T12:55:40.105Z,12.02
2017-04-26T12:56:41.130Z,12.02
2017-04-26T12:57:42.256Z,12.02
2017-04-26T12:58:43.266Z,12.06
2017-04-26T12:59:44.175Z,12.10
2017-04-26T13:00:45.218Z,12.14
2017-04-26T13:01:46.015Z,12.19
2017-04-26T13:02:47.111Z,12.24
2017-04-26T13:03:48.199Z,12.24
2017-04-26T13:04:49.222Z,12.22
2017-04-26T13:05:50.374Z,12.17
2017-04-26T13:06:51.382Z,12.08
2017-04-26T13:07:52.390Z,12.02
2017-04-26T13:08:53.429Z,11.98
2017-04-26T13:09:54.467Z,11.87
2017-04-26T13:10:55.549Z,11.81
2017-04-26T13:11:56.374Z,11.72
2017-04-26T13:12:57.421Z,11.68
2017-04-26T13:13:58.538Z,11.59
2017-04-26T13:14:59.574Z,11.61
2017-04-26T13:16:00.774Z,11.54
2017-04-26T13:17:02.385Z,11.45
2017-04-26T13:18:03.443Z,11.39
2017-04-26T13:19:04.720Z,11.29
2017-04-26T13:20:05.758Z,11.22
2017-04-26T13:21:06.687Z,11.23
2017-04-26T13:22:07.823Z,11.15
2017-04-26T13:23:08.883Z,11.15
2017-04-26T13:24:09.974Z,11.06
2017-04-26T13:25:11.378Z,10.99
2017-04-26T13:26:12.433Z,10.93
2017-04-26T13:27:13.273Z,10.92